Time;durP1;ratioP1;P1;durP2;ratioP2;P2;SDS_P1;SDS_P2;PMS_P1;PMS_P2;Temp;Humidity;BMP_temperature;BMP_pressure;BME280_temperature;BME280_humidity;BME280_pressure;Samples;Min_cycle;Max_cycle;Signal;HPM_P1;HPM_P2
2022/08/17 00:00:26;;;;;;;8.50;6.43;;;;;;;19.88;89.34;99440.06;5001640;28;20230;-79
2022/08/17 00:02:58;;;;;;;5.63;5.03;;;;;;;19.87;89.28;99442.84;5006660;28;20230;-80
2022/08/17 00:05:24;;;;;;;6.07;5.13;;;;;;;19.87;89.42;99435.03;4993703;28;20229;-80
2022/08/17 00:07:49;;;;;;;6.90;6.20;;;;;;;19.84;90.24;99436.97;4993902;28;20183;-79
2022/08/17 00:10:14;;;;;;;7.23;6.20;;;;;;;19.78;90.14;99429.78;5000088;28;20180;-80
2022/08/17 00:12:41;;;;;;;7.10;5.50;;;;;;;19.74;90.14;99438.06;4992766;28;20266;-80
2022/08/17 00:15:08;;;;;;;6.60;5.00;;;;;;;19.71;89.40;99431.38;5008586;28;20245;-80
2022/08/17 00:17:34;;;;;;;6.83;5.13;;;;;;;19.67;88.86;99432.66;4994186;28;20183;-80
2022/08/17 00:19:59;;;;;;;6.87;5.40;;;;;;;19.65;89.55;99427.59;4993822;28;20257;-80
2022/08/17 00:22:25;;;;;;;11.50;5.63;;;;;;;19.61;88.62;99431.53;4998963;28;20258;-79
2022/08/17 00:24:50;;;;;;;5.50;5.03;;;;;;;19.64;89.25;99433.00;4992961;28;20176;-79
2022/08/17 00:27:16;;;;;;;5.47;4.97;;;;;;;19.63;88.92;99429.56;4993950;28;20628;-80
2022/08/17 00:29:44;;;;;;;5.83;5.33;;;;;;;19.58;89.07;99431.00;4995894;28;20692;-79
2022/08/17 00:32:09;;;;;;;6.30;5.57;;;;;;;19.61;89.22;99423.69;4983835;28;20215;-80
2022/08/17 00:34:34;;;;;;;10.03;5.83;;;;;;;19.66;88.10;99426.63;4993002;28;20194;-80
2022/08/17 00:37:00;;;;;;;9.47;5.57;;;;;;;19.61;87.76;99423.69;4993401;28;20179;-79
2022/08/17 00:39:25;;;;;;;5.90;5.30;;;;;;;19.59;88.64;99430.06;4993088;28;20227;-79
2022/08/17 00:41:50;;;;;;;7.93;5.77;;;;;;;19.60;88.72;99424.66;4984440;28;20301;-79
2022/08/17 00:44:16;;;;;;;5.63;5.13;;;;;;;19.50;89.37;99427.41;4997379;28;20177;-81
2022/08/17 00:46:43;;;;;;;8.77;6.60;;;;;;;19.49;89.95;99415.34;5008325;28;20234;-79
2022/08/17 00:49:10;;;;;;;6.60;5.90;;;;;;;19.49;90.72;99417.94;4994383;28;20259;-79
2022/08/17 00:51:48;;;;;;;7.83;5.93;;;;;;;19.44;89.87;99419.41;4997630;28;20311;-78
2022/08/17 00:54:20;;;;;;;7.73;5.80;;;;;;;19.47;89.57;99416.47;4988793;28;20636;-78
2022/08/17 00:57:03;;;;;;;6.73;6.10;;;;;;;19.38;89.19;99413.00;4983965;28;20318;-78
2022/08/17 00:59:33;;;;;;;9.70;6.80;;;;;;;19.49;88.95;99419.75;4991780;28;20211;-80
2022/08/17 01:01:59;;;;;;;10.80;6.17;;;;;;;19.48;89.09;99411.09;4997180;28;20230;-80
2022/08/17 01:04:28;;;;;;;9.57;6.63;;;;;;;19.53;89.03;99405.41;4990997;28;20179;-80
2022/08/17 01:06:53;;;;;;;11.43;7.50;;;;;;;19.55;89.19;99407.84;4991958;28;20179;-80
2022/08/17 01:09:20;;;;;;;6.67;6.07;;;;;;;19.54;89.60;99411.44;4992766;28;20190;-80
2022/08/17 01:11:50;;;;;;;7.77;5.70;;;;;;;19.54;89.64;99417.47;5000879;28;20251;-80
2022/08/17 01:14:20;;;;;;;7.70;5.63;;;;;;;19.48;90.54;99418.91;5007247;28;20226;-79
2022/08/17 01:16:48;;;;;;;9.33;5.53;;;;;;;19.50;89.94;99421.38;5007771;28;20191;-79
2022/08/17 01:19:19;;;;;;;12.57;6.03;;;;;;;19.48;89.94;99418.09;5007746;28;20207;-79
2022/08/17 01:22:11;;;;;;;8.37;6.57;;;;;;;19.34;89.75;99414.31;4995851;28;20313;-79
2022/08/17 01:24:44;;;;;;;10.83;5.63;;;;;;;19.34;89.25;99412.50;5007245;28;20191;-79
2022/08/17 01:27:12;;;;;;;8.83;6.57;;;;;;;19.39;88.41;99409.44;4992498;28;20191;-79
2022/08/17 01:29:39;;;;;;;12.53;6.50;;;;;;;19.33;88.79;99408.25;4995554;28;20290;-79
2022/08/17 01:32:06;;;;;;;12.53;6.00;;;;;;;19.37;89.40;99405.34;4983862;28;20223;-79
2022/08/17 01:34:32;;;;;;;8.13;6.10;;;;;;;19.36;89.63;99409.75;4987708;28;20643;-80
2022/08/17 01:36:58;;;;;;;9.17;6.33;;;;;;;19.37;89.49;99407.97;4989765;28;20195;-80
2022/08/17 01:39:32;;;;;;;6.30;5.70;;;;;;;19.23;90.46;99414.59;5001266;28;20231;-81
2022/08/17 01:42:09;;;;;;;7.63;6.83;;;;;;;19.11;91.15;99421.88;4992886;28;20578;-75
2022/08/17 01:44:35;;;;;;;7.37;5.73;;;;;;;18.95;92.44;99422.59;4992126;28;20195;-80
2022/08/17 01:47:00;;;;;;;9.13;5.67;;;;;;;18.92;92.88;99421.13;4992466;28;20183;-80
2022/08/17 01:49:25;;;;;;;8.63;6.50;;;;;;;18.95;92.98;99420.81;5007536;28;20171;-80
2022/08/17 01:51:51;;;;;;;8.57;6.60;;;;;;;18.97;92.67;99413.66;4999899;28;20886;-80
2022/08/17 01:54:18;;;;;;;7.57;6.50;;;;;;;18.96;92.98;99424.25;4993619;28;20425;-80
2022/08/17 01:56:48;;;;;;;8.30;6.37;;;;;;;18.90;93.11;99422.22;4987734;28;20183;-79
2022/08/17 01:59:15;;;;;;;7.53;6.27;;;;;;;18.86;93.25;99417.31;4990559;28;20195;-80
2022/08/17 02:01:40;;;;;;;10.93;6.30;;;;;;;18.88;92.81;99415.38;4994370;28;20218;-79
2022/08/17 02:04:07;;;;;;;8.50;6.67;;;;;;;18.92;92.79;99421.13;4994406;28;20543;-79
2022/08/17 02:06:35;;;;;;;7.20;6.33;;;;;;;18.96;92.48;99417.22;4992218;28;20266;-78
2022/08/17 02:09:01;;;;;;;8.27;6.57;;;;;;;18.99;92.29;99414.31;4991949;28;20195;-80
2022/08/17 02:11:26;;;;;;;8.70;5.87;;;;;;;18.99;92.32;99426.53;4993163;28;20228;-81
2022/08/17 02:13:52;;;;;;;8.00;5.50;;;;;;;18.96;92.57;99422.44;4994514;28;20206;-81
2022/08/17 02:16:18;;;;;;;10.43;6.20;;;;;;;18.93;92.15;99421.94;4996011;28;20210;-79
2022/08/17 02:18:45;;;;;;;6.87;5.73;;;;;;;18.89;92.29;99413.59;4991629;28;20180;-79
2022/08/17 02:21:10;;;;;;;11.67;5.43;;;;;;;18.96;92.40;99422.44;4983988;28;20304;-80
2022/08/17 02:23:40;;;;;;;11.97;6.30;;;;;;;18.85;92.26;99420.91;5002305;28;20618;-80
2022/08/17 02:26:07;;;;;;;10.17;5.80;;;;;;;18.85;92.23;99415.69;4995493;28;20187;-79
2022/08/17 02:28:33;;;;;;;7.47;5.57;;;;;;;18.89;91.97;99411.00;4991111;28;20177;-79
2022/08/17 02:31:05;;;;;;;10.07;5.70;;;;;;;18.92;90.98;99413.31;4984203;28;20780;-79
2022/08/17 02:33:31;;;;;;;6.83;6.07;;;;;;;18.97;91.33;99411.03;5003013;28;20277;-80
2022/08/17 02:35:56;;;;;;;6.60;5.70;;;;;;;18.98;90.93;99414.50;4990798;28;20224;-79
2022/08/17 02:38:22;;;;;;;7.70;5.93;;;;;;;18.97;91.32;99411.03;4985712;28;20591;-80
2022/08/17 02:40:47;;;;;;;6.33;4.80;;;;;;;18.96;90.92;99414.63;4991682;28;20242;-80
2022/08/17 02:43:12;;;;;;;6.77;5.80;;;;;;;18.93;91.15;99416.72;4994198;28;20191;-79
2022/08/17 02:45:38;;;;;;;7.97;5.53;;;;;;;18.87;91.38;99420.75;4993740;28;20203;-81
2022/08/17 02:48:04;;;;;;;5.90;5.37;;;;;;;18.80;92.15;99417.91;5010048;28;20183;-81
2022/08/17 02:50:29;;;;;;;7.63;6.57;;;;;;;18.81;92.06;99418.75;4988383;28;20319;-81
2022/08/17 02:52:54;;;;;;;9.20;6.20;;;;;;;18.68;93.69;99422.56;5012364;28;20662;-80
2022/08/17 02:55:23;;;;;;;7.70;5.97;;;;;;;18.70;93.62;99420.66;4994968;28;20540;-80
2022/08/17 02:57:49;;;;;;;6.97;6.10;;;;;;;18.73;93.44;99424.72;4995394;28;20259;-80
2022/08/17 03:00:20;;;;;;;6.27;5.67;;;;;;;18.68;93.84;99421.75;4991183;28;20207;-81
2022/08/17 03:02:45;;;;;;;7.40;6.13;;;;;;;18.70;93.80;99425.03;4994193;28;20179;-80
2022/08/17 03:05:14;;;;;;;9.47;5.80;;;;;;;18.69;94.31;99431.19;4994773;28;20180;-80
2022/08/17 03:07:41;;;;;;;5.70;5.10;;;;;;;18.71;93.68;99421.44;4995286;28;20635;-80
2022/08/17 03:10:08;;;;;;;6.13;5.53;;;;;;;18.76;94.00;99426.22;4984164;28;20529;-80
2022/08/17 03:12:37;;;;;;;7.70;5.60;;;;;;;18.71;93.83;99426.66;4993721;28;20199;-80
2022/08/17 03:15:05;;;;;;;6.73;6.13;;;;;;;18.69;93.78;99429.44;5009777;28;20298;-78
2022/08/17 03:17:30;;;;;;;6.83;5.23;;;;;;;18.71;94.01;99430.06;5000520;28;20374;-79
2022/08/17 03:19:57;;;;;;;9.33;5.43;;;;;;;18.66;94.34;99429.72;5009864;28;20289;-80
2022/08/17 03:22:23;;;;;;;6.63;5.67;;;;;;;18.76;94.25;99436.63;5000910;28;20600;-79
2022/08/17 03:24:48;;;;;;;6.23;5.37;;;;;;;18.69;94.54;99432.03;4993670;28;20270;-79
2022/08/17 03:27:13;;;;;;;6.53;5.77;;;;;;;18.53;96.34;99432.72;5009896;28;20187;-81
2022/08/17 03:29:39;;;;;;;6.53;5.80;;;;;;;18.43;98.18;99445.03;4997276;28;20283;-81
2022/08/17 03:32:15;;;;;;;6.20;5.60;;;;;;;18.34;99.04;99436.31;4949947;28;20237;-79
2022/08/17 03:34:41;;;;;;;6.47;5.50;;;;;;;18.50;98.99;99437.44;4981116;28;20303;-80
2022/08/17 03:37:07;;;;;;;5.90;5.40;;;;;;;18.50;99.00;99430.41;4989753;28;20177;-81
2022/08/17 03:39:32;;;;;;;7.73;5.93;;;;;;;18.54;98.71;99431.78;4984752;28;20245;-80
2022/08/17 03:42:18;;;;;;;6.87;6.27;;;;;;;18.51;97.70;99423.44;4998624;28;20243;-80
2022/08/17 03:44:53;;;;;;;6.57;5.80;;;;;;;18.58;97.54;99421.88;5008849;28;20186;-80
2022/08/17 03:58:14;;;;;;;6.10;5.50;;;;;;;18.68;96.05;99427.78;4994338;28;20190;-80
2022/08/17 04:00:42;;;;;;;8.37;5.57;;;;;;;18.67;95.91;99423.53;5001978;28;20234;-80
2022/08/17 04:03:07;;;;;;;5.60;5.10;;;;;;;18.74;95.31;99423.75;5004117;28;20322;-79
2022/08/17 04:05:32;;;;;;;5.63;5.03;;;;;;;18.74;94.25;99410.72;4993265;28;20690;-79
2022/08/17 04:07:58;;;;;;;9.60;5.47;;;;;;;18.75;94.19;99408.94;4993907;28;20190;-79
2022/08/17 04:10:23;;;;;;;6.57;5.47;;;;;;;18.80;93.51;99404.09;4985703;28;20232;-79
2022/08/17 04:12:53;;;;;;;9.87;5.70;;;;;;;18.80;91.64;99404.88;4992984;28;20210;-79
2022/08/17 04:15:20;;;;;;;6.33;5.60;;;;;;;18.81;89.92;99410.94;4992114;28;20282;-79
2022/08/17 04:17:45;;;;;;;6.90;6.00;;;;;;;18.81;90.42;99411.75;4993789;28;20175;-79
2022/08/17 04:20:11;;;;;;;5.77;5.17;;;;;;;18.81;90.96;99408.31;4999391;28;20202;-80
2022/08/17 04:22:37;;;;;;;6.57;5.53;;;;;;;18.79;90.60;99413.69;4992435;28;20729;-79
2022/08/17 04:25:11;;;;;;;8.23;5.97;;;;;;;18.72;91.37;99415.28;4993734;28;20237;-79
2022/08/17 04:27:37;;;;;;;8.73;5.97;;;;;;;18.75;91.33;99412.34;4993813;28;20178;-78
2022/08/17 04:30:06;;;;;;;6.73;6.03;;;;;;;18.77;91.45;99409.63;4975579;28;20275;-78
2022/08/17 04:32:32;;;;;;;6.20;5.57;;;;;;;18.67;92.27;99414.94;4999243;28;20286;-79
2022/08/17 04:34:57;;;;;;;8.60;5.93;;;;;;;18.68;92.61;99426.94;5002495;28;20187;-79
2022/08/17 04:37:23;;;;;;;6.50;5.90;;;;;;;18.71;92.56;99424.88;4993379;28;20175;-79
2022/08/17 04:42:05;;;;;;;5.70;5.10;;;;;;;18.69;92.97;99432.03;4993398;28;20207;-80
2022/08/17 04:42:33;;;;;;;5.47;4.97;;;;;;;18.80;92.36;99433.53;4982457;28;20266;-81
2022/08/17 04:45:02;;;;;;;6.43;5.53;;;;;;;18.87;93.11;99434.56;4992946;28;20171;-80
2022/08/17 04:47:27;;;;;;;11.90;5.67;;;;;;;18.96;91.67;99438.06;4993499;28;20234;-79
2022/08/17 04:49:52;;;;;;;8.90;5.60;;;;;;;18.99;91.88;99439.56;4993589;28;20183;-80
2022/08/17 04:52:18;;;;;;;6.10;5.50;;;;;;;19.14;91.21;99443.22;4998905;28;20713;-80
2022/08/17 04:54:43;;;;;;;7.67;6.43;;;;;;;19.11;91.28;99442.72;4993158;28;20514;-61
2022/08/17 04:57:08;;;;;;;9.60;6.03;;;;;;;19.33;90.29;99450.00;4995500;28;20541;-61
2022/08/17 04:59:33;;;;;;;8.23;5.77;;;;;;;19.52;88.38;99445.50;4980454;28;20211;-61
2022/08/17 05:01:59;;;;;;;7.13;5.50;;;;;;;19.68;87.81;99442.97;4997874;28;20352;-62
2022/08/17 05:04:24;;;;;;;9.27;5.43;;;;;;;19.94;86.79;99452.47;4992745;28;20185;-61
2022/08/17 05:06:51;;;;;;;10.87;5.67;;;;;;;20.08;85.08;99447.63;4991749;28;20190;-61
2022/08/17 05:09:17;;;;;;;8.30;5.83;;;;;;;20.27;83.69;99447.31;4993000;28;20266;-61
2022/08/17 05:11:43;;;;;;;9.37;5.50;;;;;;;20.47;83.25;99453.00;5001388;28;20341;-61
2022/08/17 05:14:09;;;;;;;7.77;5.60;;;;;;;20.57;82.09;99459.88;4994667;28;20556;-61
2022/08/17 05:16:34;;;;;;;6.73;5.30;;;;;;;20.25;84.16;99469.34;4992796;28;20211;-65
2022/08/17 05:19:01;;;;;;;8.67;5.53;;;;;;;20.11;84.96;99478.63;4993039;28;20184;-62
2022/08/17 05:21:27;;;;;;;9.07;5.70;;;;;;;20.19;84.84;99486.47;4993504;28;20271;-62
2022/08/17 05:23:53;;;;;;;11.17;5.17;;;;;;;20.14;84.14;99486.97;4996832;28;20270;-62
2022/08/17 05:26:20;;;;;;;5.37;4.73;;;;;;;20.51;82.85;99481.44;4992481;28;20187;-62
2022/08/17 05:28:46;;;;;;;8.57;5.43;;;;;;;20.80;81.34;99481.78;4985486;28;20660;-61
2022/08/17 05:31:12;;;;;;;7.10;5.53;;;;;;;20.76;82.10;99467.41;4984697;28;20320;-62
2022/08/17 05:33:40;;;;;;;6.57;4.90;;;;;;;20.76;79.81;99462.19;4998988;28;20187;-63
2022/08/17 05:36:08;;;;;;;5.97;5.20;;;;;;;20.98;77.22;99446.78;4992359;28;20693;-61
2022/08/17 05:38:34;;;;;;;9.53;4.97;;;;;;;21.12;77.30;99453.94;4992317;28;20253;-62
2022/08/17 05:41:01;;;;;;;5.10;4.63;;;;;;;21.24;77.24;99443.91;4989710;28;20318;-62
2022/08/17 05:43:30;;;;;;;7.40;5.20;;;;;;;21.17;76.63;99444.75;5000134;28;20171;-62
2022/08/17 05:46:23;;;;;;;5.83;4.87;;;;;;;21.03;76.22;99441.06;4991940;28;20198;-62
2022/08/17 05:48:51;;;;;;;6.67;5.03;;;;;;;21.21;75.54;99444.25;4992605;28;20726;-62
2022/08/17 05:51:27;;;;;;;5.57;4.93;;;;;;;21.40;76.29;99448.25;4992010;28;20225;-61
2022/08/17 05:54:10;;;;;;;7.10;5.10;;;;;;;21.55;75.95;99456.22;5003097;28;20202;-61
2022/08/17 05:56:54;;;;;;;7.53;5.10;;;;;;;21.60;75.18;99451.31;5007370;28;20238;-61
2022/08/17 05:59:40;;;;;;;6.97;4.77;;;;;;;21.74;73.83;99455.00;4992204;28;20262;-62
2022/08/17 06:02:30;;;;;;;6.77;4.47;;;;;;;21.92;73.24;99453.94;4997549;28;20235;-61
2022/08/17 06:04:55;;;;;;;7.70;5.30;;;;;;;21.98;71.72;99453.22;4996549;28;20665;-61
2022/08/17 06:08:09;;;;;;;7.33;5.03;;;;;;;22.01;71.39;99452.88;4992283;28;20183;-61
2022/08/17 06:10:49;;;;;;;10.10;4.90;;;;;;;21.93;70.88;99451.13;4994037;28;20237;-62
2022/08/17 06:13:50;;;;;;;7.80;4.33;;;;;;;21.81;72.04;99451.72;4989731;28;20175;-61
2022/08/17 06:16:19;;;;;;;8.07;5.23;;;;;;;22.28;69.42;99448.09;4992372;28;20647;-62
2022/08/17 06:19:20;;;;;;;5.77;4.83;;;;;;;22.47;68.00;99462.53;4992197;28;20180;-62
2022/08/17 06:21:49;;;;;;;10.37;4.53;;;;;;;22.96;65.67;99471.75;4987287;28;20669;-61
2022/08/17 06:24:26;;;;;;;7.10;4.70;;;;;;;23.11;64.83;99481.44;4990408;28;20262;-62
2022/08/17 06:26:54;;;;;;;9.37;4.90;;;;;;;22.93;65.58;99482.59;4988754;28;20210;-62
2022/08/17 06:29:53;;;;;;;10.77;4.33;;;;;;;22.41;67.73;99473.72;4988827;28;20211;-62
2022/08/17 06:32:18;;;;;;;8.60;5.17;;;;;;;22.52;68.46;99483.78;4995486;28;20613;-62
2022/08/17 06:34:45;;;;;;;10.93;4.60;;;;;;;22.77;67.61;99482.75;4988807;28;20231;-62
2022/08/17 06:37:30;;;;;;;8.40;4.20;;;;;;;22.75;65.33;99476.88;4972758;28;20697;-62
2022/08/17 06:40:07;;;;;;;6.93;4.87;;;;;;;22.79;65.63;99467.69;4972787;28;20226;-62
2022/08/17 06:42:39;;;;;;;7.73;4.80;;;;;;;22.84;65.90;99470.56;4979610;28;20223;-62
2022/08/17 06:45:13;;;;;;;8.10;4.03;;;;;;;22.50;66.06;99464.81;4988659;28;20233;-62
2022/08/17 06:47:51;;;;;;;7.87;5.63;;;;;;;22.61;64.86;99465.38;4988809;28;20589;-62
2022/08/17 06:50:38;;;;;;;8.67;4.70;;;;;;;22.50;65.85;99467.44;4980470;28;20250;-64
2022/08/17 06:53:19;;;;;;;17.27;5.80;;;;;;;22.65;65.63;99457.00;4984994;28;20200;-62
2022/08/17 06:55:53;;;;;;;11.33;5.07;;;;;;;22.82;64.04;99460.28;4988826;28;20563;-63
2022/08/17 06:58:22;;;;;;;13.33;5.47;;;;;;;22.72;65.53;99462.31;4992640;28;20193;-64
2022/08/17 07:00:50;;;;;;;15.10;5.60;;;;;;;22.65;65.83;99471.88;4950445;28;20234;-63
2022/08/17 07:03:30;;;;;;;12.60;5.00;;;;;;;22.58;66.12;99465.75;4977200;28;20176;-63
2022/08/17 07:06:01;;;;;;;10.67;5.00;;;;;;;22.53;66.58;99466.28;4970009;28;20204;-63
2022/08/17 07:08:53;;;;;;;7.63;4.23;;;;;;;22.31;65.64;99460.84;4987545;28;20173;-63
2022/08/17 07:11:26;;;;;;;10.00;4.23;;;;;;;22.32;65.92;99469.53;4967811;28;20215;-62
2022/08/17 07:14:17;;;;;;;12.20;4.33;;;;;;;22.43;65.19;99473.56;4965587;28;20187;-62
2022/08/17 07:16:47;;;;;;;9.93;4.97;;;;;;;22.31;64.55;99481.00;4973097;28;20285;-62
2022/08/17 07:19:16;;;;;;;6.73;4.30;;;;;;;22.31;64.49;99481.00;4991733;28;20176;-62
2022/08/17 07:22:22;;;;;;;8.33;4.07;;;;;;;22.42;63.59;99472.75;4997441;28;20227;-62
2022/08/17 07:24:57;;;;;;;10.97;3.93;;;;;;;22.46;63.00;99471.38;4984433;28;20215;-62
2022/08/17 07:27:31;;;;;;;7.50;4.40;;;;;;;22.62;62.56;99483.53;4983578;28;20179;-62
2022/08/17 07:30:09;;;;;;;4.90;3.70;;;;;;;22.51;62.85;99474.31;4987750;28;20187;-63
2022/08/17 07:32:44;;;;;;;6.47;4.03;;;;;;;22.32;62.73;99469.53;4962009;28;20285;-62
2022/08/17 07:35:29;;;;;;;8.37;3.73;;;;;;;22.25;64.03;99477.25;4983524;28;20189;-62
2022/08/17 07:38:18;;;;;;;14.10;4.27;;;;;;;22.13;65.36;99500.44;4980599;28;20318;-62
2022/08/17 07:40:47;;;;;;;12.80;4.13;;;;;;;22.11;67.14;99502.41;4969367;28;20223;-63
2022/08/17 07:43:24;;;;;;;7.00;3.63;;;;;;;22.21;67.94;99502.97;4993601;28;20187;-65
2022/08/17 07:48:58;;;;;;;9.23;4.53;;;;;;;21.42;77.67;99505.63;4980032;28;20271;-66
2022/08/17 07:51:43;;;;;;;7.13;4.63;;;;;;;20.58;89.06;99475.38;4976208;28;20632;-64
2022/08/17 07:54:14;;;;;;;12.70;5.30;;;;;;;20.10;91.40;99477.81;4990128;28;20190;-64
2022/08/17 07:56:39;;;;;;;9.97;5.10;;;;;;;20.12;91.38;99486.31;4984286;28;20278;-66
2022/08/17 07:59:26;;;;;;;14.00;5.87;;;;;;;20.04;94.18;99480.25;4993001;28;20262;-65
2022/08/17 08:02:16;;;;;;;10.70;5.80;;;;;;;19.85;95.82;99487.38;4982765;28;20306;-66
2022/08/17 08:04:45;;;;;;;18.40;6.23;;;;;;;19.73;100.00;99520.72;4989451;28;20188;-66
2022/08/17 08:07:24;;;;;;;21.43;6.17;;;;;;;19.66;100.00;99549.25;4992524;28;20210;-65
2022/08/17 08:10:12;;;;;;;15.77;5.93;;;;;;;19.65;100.00;99560.66;4993168;28;20206;-65
2022/08/17 08:12:47;;;;;;;10.27;6.37;;;;;;;19.87;100.00;99568.13;4979905;28;20686;-65
2022/08/17 08:15:24;;;;;;;7.00;6.27;;;;;;;20.15;100.00;99573.94;4993730;28;20225;-65
2022/08/17 08:18:02;;;;;;;10.03;7.13;;;;;;;20.38;97.49;99557.66;4994211;28;20183;-66
2022/08/17 08:20:39;;;;;;;9.60;6.93;;;;;;;20.47;98.39;99572.38;4975998;28;20242;-66
2022/08/17 08:23:24;;;;;;;10.80;7.00;;;;;;;20.76;95.39;99573.72;4985689;28;20234;-65
2022/08/17 08:26:26;;;;;;;7.63;6.77;;;;;;;21.09;90.07;99578.97;4990332;28;20272;-64
2022/08/17 08:29:12;;;;;;;8.17;6.87;;;;;;;21.92;89.95;99572.56;4989208;28;20207;-65
2022/08/17 08:31:46;;;;;;;7.60;6.80;;;;;;;22.62;85.48;99564.00;4976374;28;20613;-64
2022/08/17 08:34:37;;;;;;;6.40;5.80;;;;;;;22.54;80.52;99563.06;4990777;28;20180;-64
2022/08/17 08:37:08;;;;;;;6.63;6.00;;;;;;;22.70;78.82;99556.06;4993066;28;20195;-64
2022/08/17 08:39:56;;;;;;;8.83;5.57;;;;;;;22.73;76.96;99567.00;4994059;28;20314;-65
2022/08/17 08:42:44;;;;;;;8.70;5.70;;;;;;;22.86;73.43;99560.34;4977002;28;20261;-64
2022/08/17 08:45:15;;;;;;;5.80;5.30;;;;;;;22.94;73.31;99549.78;4988256;28;20635;-65
2022/08/17 08:48:13;;;;;;;8.87;5.53;;;;;;;22.92;69.94;99545.72;4996020;28;20192;-66
2022/08/17 08:50:53;;;;;;;10.50;6.13;;;;;;;22.93;73.00;99549.97;4995806;28;20250;-65
2022/08/17 08:53:38;;;;;;;7.50;6.10;;;;;;;22.68;72.84;99550.19;4994919;28;20250;-65
2022/08/17 08:56:14;;;;;;;8.43;5.73;;;;;;;22.51;74.74;99539.84;4985833;28;20187;-65
2022/08/17 08:58:52;;;;;;;10.80;6.67;;;;;;;22.43;76.29;99529.41;4992347;28;20203;-64
2022/08/17 09:01:23;;;;;;;9.83;5.67;;;;;;;22.32;75.42;99527.16;4979805;28;20309;-65
2022/08/17 09:04:02;;;;;;;7.30;6.13;;;;;;;21.96;77.68;99512.81;4992769;28;20630;-65
2022/08/17 09:06:30;;;;;;;8.60;5.87;;;;;;;21.88;79.04;99539.03;4988217;28;20183;-65
2022/08/17 09:09:23;;;;;;;8.23;5.63;;;;;;;21.77;79.39;99537.63;4992122;28;20190;-67
2022/08/17 09:12:00;;;;;;;7.70;6.77;;;;;;;21.86;82.27;99543.63;4996685;28;20231;-65
2022/08/17 09:14:44;;;;;;;7.07;6.20;;;;;;;22.16;77.08;99547.22;4991327;28;20604;-66
2022/08/17 09:17:13;;;;;;;10.97;6.70;;;;;;;22.28;75.75;99552.88;4993400;28;20190;-65
2022/08/17 09:19:50;;;;;;;8.10;6.43;;;;;;;22.54;77.89;99583.22;4990291;28;20203;-65
2022/08/17 09:22:33;;;;;;;9.60;6.13;;;;;;;22.97;71.54;99583.53;4997365;28;20226;-65
2022/08/17 09:25:09;;;;;;;7.70;5.90;;;;;;;23.42;67.96;99582.81;4985920;28;20183;-64
2022/08/17 09:27:46;;;;;;;6.47;5.83;;;;;;;23.69;66.40;99589.22;4988455;28;20198;-66
2022/08/17 09:30:12;;;;;;;6.80;5.70;;;;;;;24.31;63.14;99579.28;4983112;28;20265;-65
2022/08/17 09:32:41;;;;;;;9.37;6.17;;;;;;;24.67;61.60;99582.91;4991822;28;20643;-67
2022/08/17 09:35:21;;;;;;;8.83;5.33;;;;;;;25.09;60.12;99589.94;5000935;28;20182;-66
2022/08/17 09:38:20;;;;;;;10.47;5.70;;;;;;;26.92;52.06;99587.81;4993207;28;20227;-67
2022/08/17 09:40:56;;;;;;;7.45;4.97;;;;;;;28.57;44.91;99606.19;4988543;28;20227;-67
2022/08/17 09:43:47;;;;;;;5.55;5.10;;;;;;;28.29;44.24;99596.78;4991949;28;20270;-67
2022/08/17 09:46:22;;;;;;;8.80;5.45;;;;;;;27.94;44.93;99597.16;4988827;28;20737;-67
2022/08/17 09:49:00;;;;;;;5.70;5.03;;;;;;;27.50;47.01;99596.88;4993359;28;20190;-67
2022/08/17 09:51:40;;;;;;;8.05;5.30;;;;;;;27.83;46.79;99602.06;4982818;28;20227;-67
2022/08/17 09:54:17;;;;;;;7.45;4.65;;;;;;;27.92;45.83;99584.16;4989999;28;20179;-67
2022/08/17 09:57:21;;;;;;;6.70;4.40;;;;;;;27.56;47.21;99590.78;4991881;28;20341;-67
2022/08/17 10:00:23;;;;;;;7.57;5.13;;;;;;;27.41;49.05;99593.66;4987314;28;20294;-65
2022/08/17 10:03:47;;;;;;;10.23;4.63;;;;;;;27.41;46.84;99587.56;4965973;28;20229;-65
2022/08/17 10:06:25;;;;;;;9.32;4.60;;;;;;;26.56;51.83;99599.53;5009464;28;20685;-65
2022/08/17 10:09:07;;;;;;;10.27;5.50;;;;;;;26.69;50.37;99586.38;4993657;28;20274;-65
2022/08/17 10:14:53;;;;;;;9.95;4.78;;;;;;;25.82;53.63;99607.19;4989190;28;20682;-66
2022/08/17 10:17:26;;;;;;;5.45;4.90;;;;;;;25.81;53.12;99583.69;4973560;28;20195;-65
2022/08/17 10:20:05;;;;;;;9.98;4.40;;;;;;;26.18;52.37;99586.88;4974029;28;20203;-65
2022/08/17 10:28:30;;;;;;;11.07;5.05;;;;;;;26.06;53.01;99573.44;4983127;28;20246;-66
2022/08/17 10:31:01;;;;;;;11.20;5.65;;;;;;;26.19;52.27;99575.34;4964163;28;20231;-65
2022/08/17 10:33:40;;;;;;;12.23;5.40;;;;;;;25.70;53.85;99579.78;4975762;28;20215;-66
2022/08/17 10:36:25;;;;;;;9.02;5.05;;;;;;;25.85;53.69;99556.75;4988136;28;20255;-66
2022/08/17 10:39:01;;;;;;;7.70;5.80;;;;;;;25.83;53.03;99565.88;4973781;28;20254;-67
2022/08/17 10:41:39;;;;;;;8.77;6.20;;;;;;;25.78;53.14;99585.69;4996392;28;20637;-66
2022/08/17 10:44:17;;;;;;;5.72;4.97;;;;;;;25.84;53.62;99593.81;4998315;28;20203;-65
2022/08/17 10:46:53;;;;;;;7.78;5.10;;;;;;;26.16;52.72;99580.97;5011236;28;20651;-66
2022/08/17 10:49:19;;;;;;;5.93;5.22;;;;;;;26.25;51.99;99585.88;4996226;28;20175;-65
2022/08/17 10:51:47;;;;;;;7.55;5.90;;;;;;;25.48;53.61;99589.56;5004385;28;20230;-66
2022/08/17 10:54:37;;;;;;;5.90;5.05;;;;;;;25.34;55.45;99591.28;5010972;28;20184;-65
2022/08/17 10:57:25;;;;;;;6.85;5.00;;;;;;;25.67;54.74;99590.72;4996109;28;20234;-66
2022/08/17 10:59:56;;;;;;;19.02;17.33;;;;;;;25.90;53.71;99598.28;5010599;28;20235;-66
2022/08/17 11:02:26;;;;;;;11.35;6.68;;;;;;;25.82;54.68;99594.00;4958693;28;20227;-64
2022/08/17 11:05:21;;;;;;;9.70;5.80;;;;;;;26.09;54.52;99596.78;4996069;28;20272;-63
2022/08/17 11:08:23;;;;;;;8.13;4.90;;;;;;;26.59;52.10;99591.22;5010843;28;20183;-66
2022/08/17 11:11:20;;;;;;;6.40;5.38;;;;;;;26.71;51.80;99588.81;5003656;28;20318;-64
2022/08/17 11:14:12;;;;;;;10.98;5.72;;;;;;;26.87;53.81;99591.06;5007692;28;20183;-68
2022/08/17 11:16:46;;;;;;;10.25;5.70;;;;;;;27.32;53.13;99597.53;5003291;28;20241;-66
2022/08/17 11:19:30;;;;;;;11.73;10.10;;;;;;;27.15;54.18;99600.59;5007883;28;20714;-66
2022/08/17 11:22:25;;;;;;;85.30;77.25;;;;;;;27.48;55.24;99588.38;5004462;28;20238;-66
2022/08/17 11:24:52;;;;;;;6.32;5.10;;;;;;;27.29;53.97;99584.72;5010341;28;20274;-65
2022/08/17 11:27:28;;;;;;;16.40;14.88;;;;;;;27.49;53.23;99590.81;4995993;28;20253;-65
2022/08/17 11:30:05;;;;;;;9.43;5.80;;;;;;;27.13;49.13;99583.31;5012058;28;20631;-66
2022/08/17 11:32:38;;;;;;;6.47;5.30;;;;;;;27.04;50.92;99588.00;4929213;28;20219;-65
2022/08/17 11:35:28;;;;;;;6.28;4.70;;;;;;;27.02;48.57;99582.94;4987564;28;20188;-65
2022/08/17 11:38:18;;;;;;;6.28;4.30;;;;;;;26.95;48.78;99590.03;4995464;28;20650;-65
2022/08/17 11:40:52;;;;;;;10.93;8.75;;;;;;;27.09;48.84;99590.84;5003962;28;20234;-66
2022/08/17 11:43:59;;;;;;;9.80;5.75;;;;;;;26.99;49.65;99582.53;5008443;28;20194;-65
2022/08/17 11:52:41;;;;;;;6.18;5.15;;;;;;;26.72;52.22;99580.69;4989498;28;20285;-65
2022/08/17 11:55:30;;;;;;;5.22;4.72;;;;;;;26.90;51.39;99580.13;4993399;28;20231;-66
2022/08/17 11:58:05;;;;;;;14.75;11.18;;;;;;;26.94;49.83;99585.78;4993022;28;20649;-65
2022/08/17 12:00:48;;;;;;;5.45;3.92;;;;;;;26.82;48.92;99596.13;4979127;28;20234;-65
2022/08/17 12:03:32;;;;;;;5.30;4.47;;;;;;;26.78;50.99;99612.56;5000286;28;20219;-66
2022/08/17 12:06:33;;;;;;;4.40;4.00;;;;;;;27.00;49.22;99608.72;4991242;28;20238;-68
2022/08/17 12:09:06;;;;;;;14.95;12.40;;;;;;;27.49;47.39;99604.00;4994324;28;20266;-66
2022/08/17 12:11:49;;;;;;;6.93;3.90;;;;;;;27.65;46.83;99602.75;4983466;28;20239;-66
2022/08/17 12:14:25;;;;;;;4.35;3.60;;;;;;;27.91;45.92;99602.84;4991944;28;20184;-66
2022/08/17 12:17:11;;;;;;;7.03;5.05;;;;;;;27.93;45.09;99588.41;4993689;28;20195;-65
2022/08/17 12:19:38;;;;;;;5.15;3.80;;;;;;;28.23;45.52;99590.53;4995436;28;20329;-66
2022/08/17 12:22:15;;;;;;;7.35;6.13;;;;;;;27.63;45.67;99594.22;4989966;28;20753;-67
2022/08/17 12:24:40;;;;;;;6.82;3.92;;;;;;;27.47;46.30;99589.38;4991198;28;20175;-65
2022/08/17 12:27:09;;;;;;;5.63;4.00;;;;;;;27.39;46.60;99601.75;4994652;28;20246;-66
2022/08/17 12:29:37;;;;;;;8.60;7.78;;;;;;;27.26;47.28;99598.34;4993495;28;20229;-65
2022/08/17 12:32:05;;;;;;;5.90;3.95;;;;;;;27.03;48.00;99595.13;4998304;28;20261;-65